Nimbus Weather Services

Informe meteorológico para Carrasco, Uruguay. El informe se hizo hace 37 minutos, a las 07:00 UTC. El viento soplaba a una velocidad de 38.6 m/s (86.3 millas por hora) del norte-noroeste (330°). La temperatura era 1 °C (34 °F), con un punto de rocío de -2 °C (28 °F). La sensación térmica era de -11 °C (14 °F). La presión atmosférica era 1018 hPa (30.06 inHg). Había una humedad relativa del 80.3%. En aquel momento la visibilidad global era 6.0 kilómetros (3.7 millas).

La clave METAR es: SUMU 250700Z 33075KT 6000 NSC 01/M02 Q1018 TEMPO BR

Consulta realizada el Lunes 25 de Junio de 2018 4:36. Tiempo usado para generar esta pagina:3,795 ms.